createdAt,value
2022-11-01T00:00:28.596Z,11.08
2022-11-01T00:01:28.652Z,11.11
2022-11-01T00:02:28.628Z,11.16
2022-11-01T00:03:28.589Z,11.09
2022-11-01T00:04:28.624Z,11.01
2022-11-01T00:05:28.599Z,10.90
2022-11-01T00:06:28.566Z,10.87
2022-11-01T00:07:28.577Z,10.86
2022-11-01T00:08:29.654Z,10.88
2022-11-01T00:09:28.580Z,10.94
2022-11-01T00:10:28.543Z,11.05
2022-11-01T00:11:28.540Z,10.99
2022-11-01T00:12:28.569Z,11.11
2022-11-01T00:13:28.534Z,11.12
2022-11-01T00:14:28.524Z,11.23
2022-11-01T00:15:28.564Z,11.16
2022-11-01T00:16:28.494Z,11.20
2022-11-01T00:17:28.488Z,11.31
2022-11-01T00:18:28.503Z,11.28
2022-11-01T00:19:28.519Z,11.35
2022-11-01T00:20:28.507Z,11.42
2022-11-01T00:21:28.466Z,11.42
2022-11-01T00:22:28.459Z,11.44
2022-11-01T00:23:28.471Z,11.42
2022-11-01T00:24:28.492Z,11.33
2022-11-01T00:25:28.504Z,11.35
2022-11-01T00:26:28.471Z,11.33
2022-11-01T00:27:28.428Z,11.49
2022-11-01T00:28:28.437Z,11.44
2022-11-01T00:29:28.433Z,11.41
2022-11-01T00:30:28.500Z,11.39
2022-11-01T00:31:28.513Z,11.46
2022-11-01T00:32:28.399Z,11.46
2022-11-01T00:33:28.400Z,11.56
2022-11-01T00:34:28.398Z,11.48
2022-11-01T00:35:28.427Z,11.56
2022-11-01T00:36:28.404Z,11.46
2022-11-01T00:37:28.469Z,11.28
2022-11-01T00:38:28.370Z,11.03
2022-11-01T00:39:30.488Z,10.87
2022-11-01T00:40:28.352Z,10.84
2022-11-01T00:41:28.380Z,10.69
2022-11-01T00:42:28.383Z,10.72
2022-11-01T00:43:28.362Z,10.65
2022-11-01T00:44:28.340Z,10.65
2022-11-01T00:45:28.336Z,10.66
2022-11-01T00:46:28.328Z,10.60
2022-11-01T00:47:28.600Z,10.80
2022-11-01T00:48:28.337Z,10.80
2022-11-01T00:49:28.302Z,10.87
2022-11-01T00:50:28.315Z,10.80
2022-11-01T00:51:28.316Z,10.81
2022-11-01T00:52:28.269Z,10.75
2022-11-01T00:53:28.307Z,10.69
2022-11-01T00:54:28.301Z,10.73
2022-11-01T00:55:28.267Z,10.80
2022-11-01T00:56:28.253Z,10.75
2022-11-01T00:57:28.366Z,10.80
2022-11-01T00:58:28.268Z,10.78
2022-11-01T00:59:28.310Z,10.91
2022-11-01T01:00:28.253Z,10.95
2022-11-01T01:01:28.325Z,10.91
2022-11-01T01:02:29.309Z,10.93
2022-11-01T01:03:28.252Z,11.11
2022-11-01T01:04:28.266Z,11.17
2022-11-01T01:05:28.209Z,11.01
2022-11-01T01:06:28.270Z,10.94
2022-11-01T01:07:28.223Z,10.88
2022-11-01T01:08:28.190Z,10.94
2022-11-01T01:09:28.191Z,10.90
2022-11-01T01:10:28.210Z,10.99
2022-11-01T01:11:28.209Z,11.05
2022-11-01T01:12:28.171Z,11.08
2022-11-01T01:13:28.196Z,11.11
2022-11-01T01:14:32.243Z,11.20
2022-11-01T01:15:29.160Z,11.21
2022-11-01T01:16:28.220Z,11.26
2022-11-01T01:17:31.265Z,11.30
2022-11-01T01:18:29.139Z,11.35
2022-11-01T01:19:28.141Z,11.44
2022-11-01T01:20:28.142Z,11.41
2022-11-01T01:21:28.158Z,11.23
2022-11-01T01:22:28.130Z,11.33
2022-11-01T01:23:28.110Z,11.30
2022-11-01T01:24:28.108Z,11.35
2022-11-01T01:25:28.097Z,11.21
2022-11-01T01:26:28.120Z,11.08
2022-11-01T01:27:28.138Z,11.06
2022-11-01T01:28:28.073Z,11.01
2022-11-01T01:29:28.099Z,11.21
2022-11-01T01:30:28.055Z,11.17
2022-11-01T01:31:28.088Z,11.19
2022-11-01T01:32:28.096Z,11.03
2022-11-01T01:33:28.047Z,11.05
2022-11-01T01:34:28.050Z,11.19
2022-11-01T01:35:28.073Z,11.17
2022-11-01T01:36:28.040Z,11.30
2022-11-01T01:37:28.087Z,11.31
2022-11-01T01:38:28.042Z,11.39
2022-11-01T01:39:28.149Z,11.36
2022-11-01T01:40:28.007Z,11.20
2022-11-01T01:41:28.031Z,11.31
2022-11-01T01:42:28.024Z,11.35
2022-11-01T01:43:27.992Z,11.31
2022-11-01T01:44:28.022Z,11.36
2022-11-01T01:45:27.978Z,11.42
2022-11-01T01:46:27.980Z,11.45
2022-11-01T01:47:27.965Z,11.45
2022-11-01T01:48:28.014Z,11.49
2022-11-01T01:49:27.983Z,11.46
2022-11-01T01:50:28.953Z,11.44
2022-11-01T01:51:27.954Z,11.45
2022-11-01T01:52:27.966Z,11.45
2022-11-01T01:53:27.927Z,11.35
2022-11-01T01:54:27.950Z,11.38
2022-11-01T01:55:27.928Z,11.17
2022-11-01T01:56:27.929Z,11.19
2022-11-01T01:57:27.924Z,11.30
2022-11-01T01:58:27.896Z,11.28
2022-11-01T01:59:27.950Z,11.33
2022-11-01T02:00:27.901Z,11.31
2022-11-01T02:01:28.042Z,11.24
2022-11-01T02:02:27.897Z,11.30
2022-11-01T02:03:27.877Z,11.39
2022-11-01T02:04:27.929Z,11.33
2022-11-01T02:05:27.892Z,11.30
2022-11-01T02:06:27.852Z,11.19
2022-11-01T02:07:27.861Z,11.24
2022-11-01T02:08:28.025Z,11.30
2022-11-01T02:09:30.929Z,11.28
2022-11-01T02:10:27.823Z,11.53
2022-11-01T02:11:27.877Z,11.44
2022-11-01T02:12:27.834Z,11.42
2022-11-01T02:13:27.807Z,11.44
2022-11-01T02:14:27.882Z,11.51
2022-11-01T02:15:27.844Z,11.44
2022-11-01T02:16:27.806Z,11.49
2022-11-01T02:17:27.795Z,11.51
2022-11-01T02:18:27.817Z,11.62
2022-11-01T02:19:27.760Z,11.53
2022-11-01T02:20:27.744Z,11.45
2022-11-01T02:21:28.860Z,11.54
2022-11-01T02:22:27.791Z,11.69
2022-11-01T02:23:27.828Z,11.59
2022-11-01T02:24:27.737Z,11.56
2022-11-01T02:25:27.738Z,11.63
2022-11-01T02:26:27.733Z,11.62
2022-11-01T02:27:27.794Z,11.70
2022-11-01T02:28:27.767Z,11.69
2022-11-01T02:29:27.712Z,11.69
2022-11-01T02:30:27.704Z,11.69
2022-11-01T02:31:27.686Z,11.66
2022-11-01T02:32:27.695Z,12.01
2022-11-01T02:33:27.698Z,12.01
2022-11-01T02:34:27.688Z,12.07
2022-11-01T02:35:27.694Z,12.08
2022-11-01T02:36:27.659Z,12.13
2022-11-01T02:37:28.663Z,12.04
2022-11-01T02:38:27.655Z,11.90
2022-11-01T02:39:27.766Z,11.85
2022-11-01T02:40:27.671Z,11.79
2022-11-01T02:41:27.636Z,11.88
2022-11-01T02:42:27.648Z,12.03
2022-11-01T02:43:27.651Z,12.07
2022-11-01T02:44:27.631Z,12.07
2022-11-01T02:45:27.617Z,12.11
2022-11-01T02:46:27.615Z,12.11
2022-11-01T02:47:27.612Z,12.15
2022-11-01T02:48:27.609Z,12.12
2022-11-01T02:49:27.613Z,12.11
2022-11-01T02:50:27.620Z,12.19
2022-11-01T02:51:27.609Z,12.23
2022-11-01T02:52:27.587Z,12.29
2022-11-01T02:53:27.555Z,12.29
2022-11-01T02:54:27.559Z,12.16
2022-11-01T02:55:27.595Z,12.22
2022-11-01T02:56:27.559Z,12.26
2022-11-01T02:57:27.532Z,12.31
2022-11-01T02:58:27.556Z,12.41
2022-11-01T02:59:27.532Z,12.31
2022-11-01T03:00:27.513Z,12.38
2022-11-01T03:01:27.670Z,12.46
2022-11-01T03:02:27.497Z,12.41
2022-11-01T03:03:27.496Z,12.52
2022-11-01T03:04:27.494Z,12.49
2022-11-01T03:05:27.507Z,12.51
2022-11-01T03:06:27.498Z,12.52
2022-11-01T03:07:27.490Z,12.55
2022-11-01T03:08:27.455Z,12.38
2022-11-01T03:09:27.451Z,12.31
2022-11-01T03:10:27.447Z,12.12
2022-11-01T03:11:27.506Z,11.93
2022-11-01T03:12:30.534Z,11.88
2022-11-01T03:13:27.420Z,12.01
2022-11-01T03:14:27.408Z,11.90
2022-11-01T03:15:27.430Z,11.93
2022-11-01T03:16:27.560Z,12.03
2022-11-01T03:17:27.395Z,11.96
2022-11-01T03:18:27.408Z,11.97
2022-11-01T03:19:27.386Z,11.97
2022-11-01T03:20:27.382Z,11.88
2022-11-01T03:21:27.399Z,11.94
2022-11-01T03:22:27.401Z,11.94
2022-11-01T03:23:27.373Z,12.05
2022-11-01T03:24:27.367Z,12.01
2022-11-01T03:25:27.373Z,11.98
2022-11-01T03:26:27.346Z,12.03
2022-11-01T03:27:27.355Z,11.97
2022-11-01T03:28:27.345Z,12.03
2022-11-01T03:29:27.325Z,11.97
2022-11-01T03:30:27.324Z,11.90
2022-11-01T03:31:27.318Z,11.98
2022-11-01T03:32:28.342Z,12.05
2022-11-01T03:33:27.330Z,11.96
2022-11-01T03:34:27.298Z,11.87
2022-11-01T03:35:27.315Z,12.11
2022-11-01T03:36:27.282Z,12.08
2022-11-01T03:37:27.276Z,12.11
2022-11-01T03:38:27.280Z,12.15
2022-11-01T03:39:27.264Z,12.16
2022-11-01T03:40:27.285Z,12.21
2022-11-01T03:41:27.265Z,12.22
2022-11-01T03:42:27.256Z,12.31
2022-11-01T03:43:27.232Z,12.31
2022-11-01T03:44:27.244Z,12.36
2022-11-01T03:45:27.380Z,12.26
2022-11-01T03:46:27.210Z,12.37
2022-11-01T03:47:27.362Z,12.36
2022-11-01T03:48:27.201Z,12.40
2022-11-01T03:49:27.239Z,12.44
2022-11-01T03:50:27.183Z,12.43
2022-11-01T03:51:27.199Z,12.56
2022-11-01T03:52:27.171Z,12.66
2022-11-01T03:53:27.165Z,12.51
2022-11-01T03:54:27.156Z,12.58
2022-11-01T03:55:27.182Z,12.55
2022-11-01T03:56:27.160Z,12.62
2022-11-01T03:57:27.156Z,12.59
2022-11-01T03:58:27.158Z,12.49
2022-11-01T03:59:27.155Z,12.51
2022-11-01T04:00:27.137Z,12.44
2022-11-01T04:01:27.233Z,12.38
2022-11-01T04:02:27.101Z,12.43
2022-11-01T04:03:27.109Z,12.44
2022-11-01T04:04:27.113Z,12.46
2022-11-01T04:05:27.134Z,12.46
2022-11-01T04:06:27.111Z,12.44
2022-11-01T04:07:27.062Z,12.46
2022-11-01T04:08:27.088Z,12.46
2022-11-01T04:09:27.057Z,12.44
2022-11-01T04:10:27.096Z,12.41
2022-11-01T04:11:27.064Z,12.48
2022-11-01T04:12:27.040Z,12.56
2022-11-01T04:13:27.031Z,12.40
2022-11-01T04:14:27.035Z,12.46
2022-11-01T04:15:27.025Z,12.54
2022-11-01T04:16:27.035Z,12.44
2022-11-01T04:17:27.006Z,12.49
2022-11-01T04:18:27.022Z,12.49
2022-11-01T04:19:26.993Z,12.48
2022-11-01T04:20:27.014Z,12.48
2022-11-01T04:21:27.026Z,12.44
2022-11-01T04:22:26.975Z,12.55
2022-11-01T04:23:27.024Z,12.44
2022-11-01T04:24:26.969Z,12.44
2022-11-01T04:25:26.958Z,12.36
2022-11-01T04:26:26.956Z,12.46
2022-11-01T04:27:26.989Z,12.44
2022-11-01T04:28:26.935Z,12.49
2022-11-01T04:29:26.963Z,12.56
2022-11-01T04:30:26.912Z,12.63
2022-11-01T04:31:26.903Z,12.59
2022-11-01T04:32:26.900Z,12.59
2022-11-01T04:33:26.898Z,12.54
2022-11-01T04:34:26.941Z,12.63
2022-11-01T04:35:26.926Z,12.58
2022-11-01T04:36:26.877Z,12.67
2022-11-01T04:37:26.874Z,12.69
2022-11-01T04:38:26.882Z,12.77
2022-11-01T04:39:26.860Z,12.73
2022-11-01T04:40:26.878Z,12.73
2022-11-01T04:41:26.845Z,12.77
2022-11-01T04:42:26.883Z,12.81
2022-11-01T04:43:26.825Z,12.79
2022-11-01T04:44:26.843Z,12.94
2022-11-01T04:45:26.857Z,12.88
2022-11-01T04:46:26.825Z,12.98
2022-11-01T04:47:26.800Z,12.92
2022-11-01T04:48:26.789Z,12.96
2022-11-01T04:49:26.783Z,12.91
2022-11-01T04:50:26.815Z,13.03
2022-11-01T04:51:26.897Z,12.99
2022-11-01T04:52:26.759Z,12.96
2022-11-01T04:53:26.794Z,12.96
2022-11-01T04:54:26.754Z,13.04
2022-11-01T04:55:26.749Z,13.10
2022-11-01T04:56:26.779Z,13.10
2022-11-01T04:57:26.738Z,13.19
2022-11-01T04:58:26.728Z,13.25
2022-11-01T04:59:26.757Z,13.28
2022-11-01T05:00:26.713Z,13.35
2022-11-01T05:01:26.876Z,13.28
2022-11-01T05:02:26.708Z,13.31
2022-11-01T05:03:26.708Z,13.28
2022-11-01T05:04:26.693Z,13.31
2022-11-01T05:05:26.683Z,13.36
2022-11-01T05:06:26.840Z,13.43
2022-11-01T05:07:26.686Z,13.48
2022-11-01T05:08:26.770Z,13.47
2022-11-01T05:09:26.643Z,13.44
2022-11-01T05:10:26.647Z,13.41
2022-11-01T05:11:26.645Z,13.48
2022-11-01T05:12:26.668Z,13.51
2022-11-01T05:13:26.616Z,13.51
2022-11-01T05:14:26.649Z,13.55
2022-11-01T05:15:26.600Z,13.47
2022-11-01T05:16:26.604Z,13.55
2022-11-01T05:17:26.640Z,13.61
2022-11-01T05:18:26.616Z,13.62
2022-11-01T05:19:26.591Z,13.62
2022-11-01T05:20:26.601Z,13.66
2022-11-01T05:21:26.560Z,13.71
2022-11-01T05:22:26.543Z,13.73
2022-11-01T05:23:26.582Z,13.69
2022-11-01T05:24:26.555Z,13.69
2022-11-01T05:25:26.522Z,13.73
2022-11-01T05:26:26.554Z,13.66
2022-11-01T05:27:26.519Z,13.76
2022-11-01T05:28:26.524Z,13.83
2022-11-01T05:29:33.004Z,13.80
2022-11-01T05:30:28.506Z,13.79
2022-11-01T05:31:26.514Z,13.80
2022-11-01T05:32:26.496Z,13.83
2022-11-01T05:33:26.509Z,13.83
2022-11-01T05:34:26.551Z,13.76
2022-11-01T05:35:26.480Z,13.88
2022-11-01T05:36:26.494Z,13.83
2022-11-01T05:37:28.183Z,13.83
2022-11-01T05:38:27.450Z,13.81
2022-11-01T05:39:26.449Z,13.79
2022-11-01T05:40:26.427Z,13.86
2022-11-01T05:41:26.434Z,13.79
2022-11-01T05:42:26.430Z,13.80
2022-11-01T05:43:26.396Z,13.83
2022-11-01T05:44:26.427Z,13.87
2022-11-01T05:45:26.415Z,13.80
2022-11-01T05:46:26.380Z,13.84
2022-11-01T05:47:26.371Z,13.88
2022-11-01T05:48:26.395Z,13.86
2022-11-01T05:49:26.367Z,13.80
2022-11-01T05:50:26.392Z,13.80
2022-11-01T05:51:26.344Z,13.71
2022-11-01T05:52:26.344Z,13.87
2022-11-01T05:53:26.344Z,13.80
2022-11-01T05:54:26.353Z,13.69
2022-11-01T05:55:26.310Z,13.79
2022-11-01T05:56:26.298Z,13.72
2022-11-01T05:57:30.900Z,13.76
2022-11-01T05:58:30.574Z,13.80
2022-11-01T05:59:27.363Z,13.79
2022-11-01T06:00:26.303Z,13.84
2022-11-01T06:01:26.319Z,13.86
2022-11-01T06:02:26.302Z,13.84
2022-11-01T06:03:26.275Z,13.86
2022-11-01T06:04:26.267Z,13.93
2022-11-01T06:05:26.277Z,13.87
2022-11-01T06:06:26.265Z,13.81
2022-11-01T06:07:26.225Z,13.79
2022-11-01T06:08:26.213Z,13.88
2022-11-01T06:09:26.243Z,13.87
2022-11-01T06:10:26.199Z,13.84
2022-11-01T06:11:26.217Z,13.90
2022-11-01T06:12:26.192Z,13.84
2022-11-01T06:13:26.166Z,13.91
2022-11-01T06:14:26.260Z,13.91
2022-11-01T06:15:26.162Z,13.94
2022-11-01T06:16:26.272Z,13.91
2022-11-01T06:17:26.306Z,13.99
2022-11-01T06:18:26.172Z,13.96
2022-11-01T06:19:26.147Z,13.91
2022-11-01T06:20:26.115Z,14.02
2022-11-01T06:21:29.267Z,13.94
2022-11-01T06:22:27.152Z,14.05
2022-11-01T06:23:26.120Z,14.01
2022-11-01T06:24:26.108Z,13.98
2022-11-01T06:25:26.086Z,13.96
2022-11-01T06:26:26.073Z,14.05
2022-11-01T06:27:26.115Z,14.05
2022-11-01T06:28:26.061Z,14.06
2022-11-01T06:29:26.067Z,14.04
2022-11-01T06:30:26.049Z,14.06
2022-11-01T06:31:26.038Z,14.19
2022-11-01T06:32:26.069Z,14.08
2022-11-01T06:33:26.025Z,14.13
2022-11-01T06:34:26.039Z,14.19
2022-11-01T06:35:26.011Z,14.08
2022-11-01T06:36:26.017Z,14.20
2022-11-01T06:37:26.219Z,14.06
2022-11-01T06:38:26.006Z,14.09
2022-11-01T06:39:26.113Z,14.13
2022-11-01T06:40:25.978Z,14.12
2022-11-01T06:41:25.974Z,13.98
2022-11-01T06:42:25.976Z,14.12
2022-11-01T06:43:26.041Z,14.12
2022-11-01T06:44:25.994Z,14.20
2022-11-01T06:45:25.946Z,14.17
2022-11-01T06:46:25.938Z,14.05
2022-11-01T06:47:26.008Z,14.19
2022-11-01T06:48:25.916Z,14.06
2022-11-01T06:49:25.916Z,14.13
2022-11-01T06:50:25.913Z,14.09
2022-11-01T06:51:25.906Z,14.16
2022-11-01T06:52:25.923Z,14.02
2022-11-01T06:53:25.894Z,14.12
2022-11-01T06:54:25.919Z,14.08
2022-11-01T06:55:25.885Z,14.16
2022-11-01T06:56:25.872Z,14.16
2022-11-01T06:57:25.853Z,14.21
2022-11-01T06:58:25.883Z,14.19
2022-11-01T06:59:25.842Z,14.13
2022-11-01T07:00:25.860Z,14.31
2022-11-01T07:01:26.039Z,14.17
2022-11-01T07:02:29.754Z,14.27
2022-11-01T07:03:26.801Z,14.23
2022-11-01T07:04:25.810Z,14.31
2022-11-01T07:05:25.824Z,14.31
2022-11-01T07:06:25.840Z,14.21
2022-11-01T07:07:25.878Z,14.29
2022-11-01T07:08:25.786Z,14.31
2022-11-01T07:09:25.772Z,14.27
2022-11-01T07:10:25.796Z,14.31
2022-11-01T07:11:30.936Z,14.27
2022-11-01T07:12:27.739Z,14.24
2022-11-01T07:13:25.760Z,14.31
2022-11-01T07:14:25.738Z,14.29
2022-11-01T07:15:25.732Z,14.29
2022-11-01T07:16:25.725Z,14.41
2022-11-01T07:17:25.718Z,14.39
2022-11-01T07:18:25.714Z,14.39
2022-11-01T07:19:25.674Z,14.48
2022-11-01T07:20:25.676Z,14.48
2022-11-01T07:21:25.665Z,14.53
2022-11-01T07:22:25.689Z,14.61
2022-11-01T07:23:25.644Z,14.49
2022-11-01T07:24:25.647Z,14.49
2022-11-01T07:25:25.638Z,14.52
2022-11-01T07:26:25.650Z,14.64
2022-11-01T07:27:25.647Z,14.54
2022-11-01T07:28:25.653Z,14.69
2022-11-01T07:29:25.616Z,14.66
2022-11-01T07:30:25.741Z,14.67
2022-11-01T07:31:25.589Z,14.66
2022-11-01T07:32:25.590Z,14.75
2022-11-01T07:33:25.648Z,14.69
2022-11-01T07:34:25.607Z,14.79
2022-11-01T07:35:25.581Z,14.79
2022-11-01T07:36:25.570Z,14.75
2022-11-01T07:37:25.557Z,14.91
2022-11-01T07:38:25.582Z,14.86
2022-11-01T07:39:25.667Z,14.87
2022-11-01T07:40:25.561Z,14.94
2022-11-01T07:41:25.566Z,14.95
2022-11-01T07:42:25.539Z,14.91
2022-11-01T07:43:25.589Z,14.97
2022-11-01T07:44:25.652Z,15.00
2022-11-01T07:45:25.604Z,15.01
2022-11-01T07:46:25.526Z,15.07
2022-11-01T07:47:25.477Z,15.09
2022-11-01T07:48:25.490Z,15.01
2022-11-01T07:49:25.457Z,15.19
2022-11-01T07:50:25.479Z,15.15
2022-11-01T07:51:25.519Z,15.31
2022-11-01T07:52:25.427Z,15.27
2022-11-01T07:53:25.438Z,15.33
2022-11-01T07:54:25.422Z,15.22
2022-11-01T07:55:25.426Z,15.28
2022-11-01T07:56:25.464Z,15.37
2022-11-01T07:57:25.389Z,15.34
2022-11-01T07:58:25.391Z,15.27
2022-11-01T07:59:25.379Z,15.25
2022-11-01T08:00:26.608Z,15.20
2022-11-01T08:01:25.477Z,15.20
2022-11-01T08:02:25.474Z,15.25
2022-11-01T08:03:25.349Z,15.20
2022-11-01T08:04:25.346Z,15.22
2022-11-01T08:05:25.350Z,15.11
2022-11-01T08:06:25.319Z,15.15
2022-11-01T08:07:25.331Z,15.19
2022-11-01T08:08:25.311Z,15.11
2022-11-01T08:09:25.304Z,15.04
2022-11-01T08:10:25.433Z,15.03
2022-11-01T08:11:25.315Z,15.07
2022-11-01T08:12:25.270Z,15.07
2022-11-01T08:13:25.297Z,15.13
2022-11-01T08:14:25.286Z,15.23
2022-11-01T08:15:25.266Z,15.12
2022-11-01T08:16:25.279Z,15.22
2022-11-01T08:17:25.258Z,15.22
2022-11-01T08:18:25.324Z,15.19
2022-11-01T08:19:25.265Z,15.20
2022-11-01T08:20:25.352Z,15.20
2022-11-01T08:21:25.200Z,15.27
2022-11-01T08:22:25.225Z,15.31
2022-11-01T08:23:26.217Z,15.25
2022-11-01T08:24:25.218Z,15.25
2022-11-01T08:25:25.170Z,15.33
2022-11-01T08:26:25.170Z,15.30
2022-11-01T08:27:25.204Z,15.23
2022-11-01T08:28:25.144Z,15.37
2022-11-01T08:29:25.155Z,15.30
2022-11-01T08:30:25.149Z,15.33
2022-11-01T08:31:25.156Z,15.41
2022-11-01T08:32:25.161Z,15.38
2022-11-01T08:33:25.151Z,15.40
2022-11-01T08:34:25.137Z,15.51
2022-11-01T08:35:25.096Z,15.43
2022-11-01T08:36:25.095Z,15.41
2022-11-01T08:37:25.102Z,15.49
2022-11-01T08:38:25.071Z,15.55
2022-11-01T08:39:25.129Z,15.52
2022-11-01T08:40:25.050Z,15.46
2022-11-01T08:41:25.046Z,15.51
2022-11-01T08:42:25.079Z,15.55
2022-11-01T08:43:25.043Z,15.52
2022-11-01T08:44:25.071Z,15.64
2022-11-01T08:45:26.033Z,15.62
2022-11-01T08:46:25.085Z,15.59
2022-11-01T08:47:25.006Z,15.53
2022-11-01T08:48:25.000Z,15.70
2022-11-01T08:49:25.021Z,15.53
2022-11-01T08:50:24.983Z,15.53
2022-11-01T08:51:25.026Z,15.67
2022-11-01T08:52:24.969Z,15.64
2022-11-01T08:53:24.974Z,15.76
2022-11-01T08:54:24.987Z,15.71
2022-11-01T08:55:24.998Z,15.70
2022-11-01T08:56:24.941Z,15.64
2022-11-01T08:57:24.938Z,15.67
2022-11-01T08:58:24.920Z,15.67
2022-11-01T08:59:24.980Z,15.71
2022-11-01T09:00:24.948Z,15.78
2022-11-01T09:01:25.027Z,15.73
2022-11-01T09:02:25.049Z,15.77
2022-11-01T09:03:24.896Z,15.85
2022-11-01T09:04:24.885Z,15.84
2022-11-01T09:05:24.914Z,15.91
2022-11-01T09:06:24.908Z,15.85
2022-11-01T09:07:24.863Z,15.98
2022-11-01T09:08:24.847Z,15.93
2022-11-01T09:09:24.837Z,15.89
2022-11-01T09:10:24.875Z,15.95
2022-11-01T09:11:24.841Z,16.01
2022-11-01T09:12:25.100Z,15.88
2022-11-01T09:13:25.837Z,15.88
2022-11-01T09:14:24.838Z,15.91
2022-11-01T09:15:24.841Z,15.93
2022-11-01T09:16:24.790Z,15.98
2022-11-01T09:17:24.777Z,15.92
2022-11-01T09:18:24.793Z,15.99
2022-11-01T09:19:24.808Z,15.96
2022-11-01T09:20:24.900Z,15.92
2022-11-01T09:21:29.149Z,16.01
2022-11-01T09:22:26.975Z,15.96
2022-11-01T09:23:24.785Z,15.96
2022-11-01T09:24:24.751Z,16.01
2022-11-01T09:25:24.727Z,15.89
2022-11-01T09:26:24.736Z,15.93
2022-11-01T09:27:24.711Z,15.93
2022-11-01T09:28:24.731Z,15.91
2022-11-01T09:29:24.737Z,15.89
2022-11-01T09:30:24.701Z,15.85
2022-11-01T09:31:24.697Z,15.76
2022-11-01T09:32:24.690Z,15.89
2022-11-01T09:33:24.692Z,15.81
2022-11-01T09:34:25.655Z,15.92
2022-11-01T09:35:24.665Z,15.86
2022-11-01T09:36:24.660Z,15.78
2022-11-01T09:37:24.651Z,15.85
2022-11-01T09:38:24.790Z,15.80
2022-11-01T09:39:24.635Z,15.81
2022-11-01T09:40:24.608Z,15.88
2022-11-01T09:41:24.615Z,15.92
2022-11-01T09:42:24.626Z,15.89
2022-11-01T09:43:24.591Z,15.91
2022-11-01T09:44:24.579Z,15.89
2022-11-01T09:45:24.570Z,16.04
2022-11-01T09:46:24.799Z,16.07
2022-11-01T09:47:24.607Z,16.03
2022-11-01T09:48:24.645Z,16.08
2022-11-01T09:49:24.621Z,16.17
2022-11-01T09:50:24.584Z,16.30
2022-11-01T09:51:24.567Z,16.17
2022-11-01T09:52:24.539Z,16.32
2022-11-01T09:53:24.541Z,16.36
2022-11-01T09:54:24.588Z,16.37
2022-11-01T09:55:25.253Z,16.37
2022-11-01T09:56:24.522Z,16.37
2022-11-01T09:57:24.488Z,16.42
2022-11-01T09:58:24.489Z,16.42
2022-11-01T09:59:24.477Z,16.50
2022-11-01T10:00:24.474Z,16.57
2022-11-01T10:01:24.566Z,16.66
2022-11-01T10:02:24.536Z,16.70
2022-11-01T10:03:24.464Z,16.80
2022-11-01T10:04:24.495Z,17.00
2022-11-01T10:05:24.454Z,16.92
2022-11-01T10:06:24.517Z,17.09
2022-11-01T10:07:24.442Z,17.07
2022-11-01T10:08:24.419Z,17.02
2022-11-01T10:09:24.412Z,17.06
2022-11-01T10:10:24.390Z,17.05
2022-11-01T10:11:24.393Z,17.06
2022-11-01T10:12:24.461Z,17.17
2022-11-01T10:13:24.541Z,17.25
2022-11-01T10:14:24.367Z,17.22
2022-11-01T10:15:24.364Z,17.30
2022-11-01T10:16:24.350Z,17.33
2022-11-01T10:17:24.467Z,17.22
2022-11-01T10:18:24.348Z,17.33
2022-11-01T10:19:24.340Z,17.40
2022-11-01T10:20:24.357Z,17.43
2022-11-01T10:21:27.221Z,17.40
2022-11-01T10:22:25.355Z,17.38
2022-11-01T10:23:24.411Z,17.36
2022-11-01T10:24:24.344Z,17.40
2022-11-01T10:25:24.299Z,17.45
2022-11-01T10:26:24.297Z,17.46
2022-11-01T10:27:24.352Z,17.38
2022-11-01T10:28:24.299Z,17.46
2022-11-01T10:29:24.356Z,17.46
2022-11-01T10:30:24.285Z,17.46
2022-11-01T10:31:24.274Z,17.45
2022-11-01T10:32:24.279Z,17.45
2022-11-01T10:33:24.274Z,17.30
2022-11-01T10:34:24.279Z,17.33
2022-11-01T10:35:24.297Z,17.24
2022-11-01T10:36:24.291Z,17.25
2022-11-01T10:37:24.230Z,17.32
2022-11-01T10:38:32.295Z,17.20
2022-11-01T10:40:26.251Z,17.38
2022-11-01T10:41:24.390Z,17.42
2022-11-01T10:42:24.221Z,17.28
2022-11-01T10:43:24.326Z,17.30
2022-11-01T10:44:24.251Z,17.38
2022-11-01T10:45:24.229Z,17.40
2022-11-01T10:46:24.223Z,17.35
2022-11-01T10:47:24.181Z,17.27
2022-11-01T10:48:24.181Z,17.38
2022-11-01T10:49:24.555Z,17.38
2022-11-01T10:50:26.103Z,17.53
2022-11-01T10:51:27.830Z,17.53
2022-11-01T10:52:25.154Z,17.54
2022-11-01T10:53:24.165Z,17.74
2022-11-01T10:54:24.140Z,17.74
2022-11-01T10:55:24.134Z,17.77
2022-11-01T10:56:25.138Z,17.73
2022-11-01T10:57:24.134Z,17.73
2022-11-01T10:58:24.126Z,17.74
2022-11-01T10:59:24.102Z,17.80
2022-11-01T11:00:24.115Z,17.68
2022-11-01T11:01:24.315Z,17.66
2022-11-01T11:02:24.131Z,17.74
2022-11-01T11:03:24.116Z,17.76
2022-11-01T11:04:24.096Z,17.86
2022-11-01T11:05:24.069Z,17.86
2022-11-01T11:06:24.071Z,17.89
2022-11-01T11:07:24.321Z,18.09
2022-11-01T11:08:25.067Z,18.02
2022-11-01T11:09:24.082Z,18.26
2022-11-01T11:10:24.504Z,18.47
2022-11-01T11:11:24.048Z,18.53
2022-11-01T11:12:24.018Z,18.34
2022-11-01T11:13:24.056Z,18.29
2022-11-01T11:14:24.042Z,18.31
2022-11-01T11:15:24.019Z,18.23
2022-11-01T11:16:24.018Z,18.19
2022-11-01T11:17:24.020Z,18.14
2022-11-01T11:18:24.026Z,18.10
2022-11-01T11:19:23.991Z,18.39
2022-11-01T11:20:23.999Z,18.34
2022-11-01T11:21:27.946Z,18.32
2022-11-01T11:22:25.000Z,18.28
2022-11-01T11:23:23.952Z,18.25
2022-11-01T11:24:24.002Z,18.17
2022-11-01T11:25:23.945Z,18.01
2022-11-01T11:26:23.979Z,17.89
2022-11-01T11:27:24.073Z,17.98
2022-11-01T11:28:23.931Z,17.98
2022-11-01T11:29:23.932Z,17.95
2022-11-01T11:30:23.908Z,17.98
2022-11-01T11:31:23.912Z,17.95
2022-11-01T11:32:23.914Z,17.89
2022-11-01T11:33:23.904Z,18.01
2022-11-01T11:34:23.901Z,18.04
2022-11-01T11:35:23.877Z,17.98
2022-11-01T11:36:23.905Z,17.89
2022-11-01T11:37:23.868Z,17.96
2022-11-01T11:38:23.950Z,18.10
2022-11-01T11:39:30.389Z,18.17
2022-11-01T11:40:24.878Z,18.19
2022-11-01T11:41:23.840Z,18.14
2022-11-01T11:42:23.882Z,18.09
2022-11-01T11:43:23.902Z,18.14
2022-11-01T11:44:23.882Z,18.04
2022-11-01T11:45:23.821Z,17.96
2022-11-01T11:46:23.842Z,17.74
2022-11-01T11:47:23.802Z,17.83
2022-11-01T11:48:23.792Z,17.95
2022-11-01T11:49:23.820Z,17.94
2022-11-01T11:50:23.806Z,18.04
2022-11-01T11:51:23.808Z,18.19
2022-11-01T11:52:28.406Z,18.07
2022-11-01T11:53:25.864Z,18.04
2022-11-01T11:54:23.776Z,18.13
2022-11-01T11:55:23.805Z,18.04
2022-11-01T11:56:23.777Z,18.05
2022-11-01T11:57:23.759Z,17.99
2022-11-01T11:58:23.738Z,17.96
2022-11-01T11:59:23.741Z,18.04
2022-11-01T12:00:23.771Z,17.92
2022-11-01T12:01:23.790Z,17.95
2022-11-01T12:02:23.859Z,17.96
2022-11-01T12:03:23.701Z,18.09
2022-11-01T12:04:23.702Z,18.19
2022-11-01T12:05:23.717Z,18.07
2022-11-01T12:06:23.727Z,18.17
2022-11-01T12:07:23.712Z,18.28
2022-11-01T12:08:23.715Z,18.32
2022-11-01T12:09:23.729Z,18.49
2022-11-01T12:10:23.696Z,18.56
2022-11-01T12:11:23.660Z,18.59
2022-11-01T12:12:23.669Z,18.53
2022-11-01T12:13:23.757Z,18.54
2022-11-01T12:14:24.061Z,18.65
2022-11-01T12:15:24.565Z,18.69
2022-11-01T12:16:24.992Z,18.69
2022-11-01T12:17:23.648Z,18.72
2022-11-01T12:18:23.623Z,18.71
2022-11-01T12:19:23.669Z,18.66
2022-11-01T12:20:24.674Z,18.79
2022-11-01T12:21:23.624Z,18.68
2022-11-01T12:22:23.616Z,18.74
2022-11-01T12:23:23.620Z,18.86
2022-11-01T12:24:23.601Z,18.69
2022-11-01T12:25:23.579Z,18.57
2022-11-01T12:26:23.578Z,18.59
2022-11-01T12:27:23.577Z,18.60
2022-11-01T12:28:23.593Z,18.66
2022-11-01T12:29:23.548Z,18.60
2022-11-01T12:30:23.644Z,18.60
2022-11-01T12:31:27.505Z,18.66
2022-11-01T12:32:24.572Z,18.56
2022-11-01T12:33:23.543Z,18.65
2022-11-01T12:34:23.535Z,18.44
2022-11-01T12:35:23.514Z,18.34
2022-11-01T12:36:24.034Z,18.25
2022-11-01T12:37:23.573Z,18.20
2022-11-01T12:38:23.554Z,18.28
2022-11-01T12:39:23.514Z,18.23
2022-11-01T12:40:23.523Z,18.29
2022-11-01T12:41:23.507Z,18.28
2022-11-01T12:42:23.470Z,18.31
2022-11-01T12:43:23.483Z,18.35
2022-11-01T12:44:23.509Z,18.47
2022-11-01T12:45:23.499Z,18.42
2022-11-01T12:46:23.453Z,18.47
2022-11-01T12:47:24.488Z,18.41
2022-11-01T12:48:23.480Z,18.38
2022-11-01T12:49:23.488Z,18.51
2022-11-01T12:50:23.549Z,18.60
2022-11-01T12:51:23.455Z,18.53
2022-11-01T12:52:23.433Z,18.57
2022-11-01T12:53:23.417Z,18.39